createdAt,value
2019-01-29T00:02:22.872Z,6.07
2019-01-29T00:04:51.686Z,6.50
2019-01-29T00:07:40.076Z,9.07
2019-01-29T00:10:09.570Z,5.07
2019-01-29T00:12:39.775Z,6.87
2019-01-29T00:15:08.802Z,6.13
2019-01-29T00:17:37.578Z,9.50
2019-01-29T00:20:06.759Z,8.93
2019-01-29T00:22:35.663Z,9.37
2019-01-29T00:25:05.438Z,7.63
2019-01-29T00:27:34.834Z,5.23
2019-01-29T00:30:03.746Z,7.57
2019-01-29T00:32:32.551Z,8.50
2019-01-29T00:35:01.650Z,12.57
2019-01-29T00:37:30.830Z,7.27
2019-01-29T00:39:59.689Z,3.83
2019-01-29T00:42:28.468Z,9.90
2019-01-29T00:44:57.269Z,8.33
2019-01-29T00:47:26.143Z,6.90
2019-01-29T00:49:55.722Z,3.37
2019-01-29T00:52:24.510Z,4.63
2019-01-29T00:54:53.265Z,7.63
2019-01-29T00:57:22.094Z,6.97
2019-01-29T00:59:52.379Z,2.50
2019-01-29T01:02:21.552Z,7.60
2019-01-29T01:07:31.475Z,8.10
2019-01-29T01:10:00.282Z,8.50
2019-01-29T01:12:29.094Z,8.23
2019-01-29T01:14:58.711Z,10.27
2019-01-29T01:17:27.514Z,3.47
2019-01-29T01:19:57.011Z,9.40
2019-01-29T01:22:27.085Z,9.03
2019-01-29T01:24:56.697Z,8.23
2019-01-29T01:27:25.465Z,7.53
2019-01-29T01:29:54.230Z,7.87
2019-01-29T01:32:23.105Z,9.57
2019-01-29T01:34:52.661Z,8.60
2019-01-29T01:37:21.483Z,8.57
2019-01-29T01:39:50.668Z,5.50
2019-01-29T01:42:19.566Z,6.93
2019-01-29T01:44:48.318Z,7.40
2019-01-29T01:47:17.054Z,9.27
2019-01-29T01:49:46.067Z,5.30
2019-01-29T01:52:14.879Z,7.87
2019-01-29T01:54:44.268Z,7.13
2019-01-29T01:57:15.226Z,4.37
2019-01-29T01:59:44.730Z,8.10
2019-01-29T02:02:13.523Z,6.23
2019-01-29T02:04:42.312Z,6.97
2019-01-29T02:07:11.162Z,13.17
2019-01-29T02:09:39.947Z,7.83
2019-01-29T02:12:08.678Z,5.57
2019-01-29T02:14:37.466Z,8.77
2019-01-29T02:17:06.314Z,5.03
2019-01-29T02:19:35.150Z,6.60
2019-01-29T02:22:03.961Z,5.70
2019-01-29T02:24:32.941Z,8.03
2019-01-29T02:27:09.343Z,7.27
2019-01-29T02:29:40.134Z,9.73
2019-01-29T02:32:08.867Z,5.37
2019-01-29T02:34:37.663Z,6.13
2019-01-29T02:37:06.390Z,5.10
2019-01-29T02:39:35.156Z,5.67
2019-01-29T02:42:03.977Z,6.60
2019-01-29T02:44:32.786Z,9.37
2019-01-29T02:47:02.308Z,7.63
2019-01-29T02:49:31.238Z,7.90
2019-01-29T02:51:59.999Z,10.10
2019-01-29T02:54:28.980Z,4.80
2019-01-29T02:56:57.846Z,4.90
2019-01-29T02:59:26.682Z,5.65
2019-01-29T03:01:55.494Z,5.93
2019-01-29T03:04:24.386Z,5.57
2019-01-29T03:06:53.402Z,4.97
2019-01-29T03:09:24.181Z,5.60
2019-01-29T03:11:56.608Z,7.53
2019-01-29T03:14:25.362Z,6.80
2019-01-29T03:16:54.146Z,9.10
2019-01-29T03:19:22.942Z,9.50
2019-01-29T03:21:51.766Z,7.03
2019-01-29T03:24:20.859Z,5.07
2019-01-29T03:26:49.620Z,5.47
2019-01-29T03:29:18.506Z,7.07
2019-01-29T03:31:47.280Z,4.77
2019-01-29T03:34:16.051Z,6.93
2019-01-29T03:36:45.526Z,10.47
2019-01-29T03:39:14.318Z,11.45
2019-01-29T03:41:43.087Z,6.33
2019-01-29T03:44:11.859Z,7.63
2019-01-29T03:46:42.462Z,8.93
2019-01-29T03:49:11.237Z,9.47
2019-01-29T03:51:40.205Z,10.67
2019-01-29T03:54:09.036Z,9.87
2019-01-29T03:56:37.886Z,10.03
2019-01-29T03:59:06.707Z,8.17
2019-01-29T04:01:35.504Z,8.60
2019-01-29T04:04:04.794Z,6.57
2019-01-29T04:06:33.538Z,9.07
2019-01-29T04:09:02.366Z,10.03
2019-01-29T04:11:31.471Z,10.47
2019-01-29T04:14:00.499Z,8.80
2019-01-29T04:16:29.246Z,13.17
2019-01-29T04:18:57.992Z,10.00
2019-01-29T04:21:26.909Z,14.63
2019-01-29T04:23:56.482Z,13.17
2019-01-29T04:26:25.412Z,11.00
2019-01-29T04:28:54.478Z,14.43
2019-01-29T04:31:23.254Z,8.80
2019-01-29T04:33:51.994Z,14.77
2019-01-29T04:36:20.907Z,12.20
2019-01-29T04:38:49.678Z,11.07
2019-01-29T04:41:18.514Z,12.03
2019-01-29T04:43:47.258Z,10.30
2019-01-29T04:46:16.036Z,11.80
2019-01-29T04:48:45.426Z,11.20
2019-01-29T04:51:14.287Z,9.50
2019-01-29T04:53:43.643Z,9.40
2019-01-29T04:56:12.438Z,11.40
2019-01-29T04:58:41.198Z,14.03
2019-01-29T05:01:10.488Z,11.00
2019-01-29T05:03:42.054Z,10.67
2019-01-29T05:06:10.830Z,11.83
2019-01-29T05:08:39.574Z,16.57
2019-01-29T05:11:08.372Z,14.00
2019-01-29T05:13:38.925Z,14.33
2019-01-29T05:16:07.696Z,10.90
2019-01-29T05:18:37.490Z,13.07
2019-01-29T05:21:06.488Z,9.47
2019-01-29T05:23:35.255Z,13.00
2019-01-29T05:26:03.986Z,17.37
2019-01-29T05:28:32.906Z,14.07
2019-01-29T05:31:01.655Z,12.30
2019-01-29T05:33:30.457Z,13.13
2019-01-29T05:35:59.337Z,10.67
2019-01-29T05:38:28.155Z,11.08
2019-01-29T05:40:56.926Z,12.03
2019-01-29T05:43:25.731Z,25.50
2019-01-29T05:45:54.690Z,19.00
2019-01-29T05:48:23.490Z,11.50
2019-01-29T05:50:52.536Z,12.47
2019-01-29T05:53:21.499Z,11.67
2019-01-29T05:55:50.287Z,11.93
2019-01-29T05:58:19.099Z,14.70
2019-01-29T06:00:47.964Z,12.03
2019-01-29T06:03:16.975Z,16.20
2019-01-29T06:05:45.834Z,11.53
2019-01-29T06:08:14.706Z,12.40
2019-01-29T06:10:43.491Z,10.40
2019-01-29T06:13:12.387Z,13.23
2019-01-29T06:15:41.172Z,11.73
2019-01-29T06:18:10.004Z,17.30
2019-01-29T06:20:38.935Z,12.60
2019-01-29T06:23:07.674Z,11.70
2019-01-29T06:25:36.513Z,19.60
2019-01-29T06:28:05.318Z,13.67
2019-01-29T06:30:34.146Z,18.17
2019-01-29T06:33:02.974Z,17.90
2019-01-29T06:35:31.793Z,15.90
2019-01-29T06:38:00.590Z,14.60
2019-01-29T06:40:29.462Z,18.57
2019-01-29T06:42:58.234Z,15.97
2019-01-29T06:45:27.000Z,18.70
2019-01-29T06:47:57.562Z,16.87
2019-01-29T06:50:26.607Z,21.73
2019-01-29T06:52:55.708Z,20.20
2019-01-29T06:55:25.581Z,15.73
2019-01-29T06:57:55.923Z,18.40
2019-01-29T07:00:26.261Z,16.00
2019-01-29T07:02:55.074Z,15.87
2019-01-29T07:05:23.878Z,19.03
2019-01-29T07:07:52.688Z,21.83
2019-01-29T07:10:21.450Z,17.83
2019-01-29T07:12:50.427Z,21.77
2019-01-29T07:15:38.079Z,21.37
2019-01-29T07:18:29.394Z,22.20
2019-01-29T07:20:58.594Z,21.60
2019-01-29T07:23:27.422Z,20.33
2019-01-29T07:25:56.299Z,20.20
2019-01-29T07:28:25.158Z,18.07
2019-01-29T07:30:53.919Z,19.97
2019-01-29T07:33:23.109Z,18.50
2019-01-29T07:35:51.888Z,16.50
2019-01-29T07:38:20.670Z,18.13
2019-01-29T07:40:49.680Z,19.27
2019-01-29T07:43:19.287Z,17.20
2019-01-29T07:45:48.406Z,17.47
2019-01-29T07:48:17.394Z,16.00
2019-01-29T07:50:46.209Z,21.27
2019-01-29T07:53:15.031Z,15.00
2019-01-29T07:55:43.900Z,15.27
2019-01-29T07:58:12.882Z,15.97
2019-01-29T08:00:42.298Z,17.10
2019-01-29T08:03:11.290Z,16.83
2019-01-29T08:05:40.147Z,16.07
2019-01-29T08:08:09.399Z,12.60
2019-01-29T08:10:38.200Z,16.53
2019-01-29T08:13:15.252Z,15.80
2019-01-29T08:15:44.090Z,19.97
2019-01-29T08:18:13.056Z,17.73
2019-01-29T08:20:41.944Z,14.47
2019-01-29T08:23:10.697Z,18.13
2019-01-29T08:25:47.410Z,14.40
2019-01-29T08:28:10.033Z,17.20
2019-01-29T08:30:38.828Z,20.47
2019-01-29T08:33:08.095Z,17.97
2019-01-29T08:35:36.891Z,15.70
2019-01-29T08:38:05.675Z,15.97
2019-01-29T08:40:35.145Z,15.03
2019-01-29T08:43:03.928Z,17.03
2019-01-29T08:45:32.752Z,19.20
2019-01-29T08:48:01.603Z,17.73
2019-01-29T08:50:30.374Z,17.40
2019-01-29T08:52:59.199Z,20.67
2019-01-29T08:55:27.990Z,23.90
2019-01-29T08:57:56.812Z,21.57
2019-01-29T09:00:25.717Z,29.83
2019-01-29T09:02:54.569Z,24.77
2019-01-29T09:05:24.147Z,23.90
2019-01-29T09:07:52.976Z,25.90
2019-01-29T09:10:22.097Z,25.13
2019-01-29T09:12:51.590Z,28.73
2019-01-29T09:15:20.441Z,27.80
2019-01-29T09:17:49.311Z,29.33
2019-01-29T09:20:18.961Z,26.70
2019-01-29T09:22:47.779Z,27.63
2019-01-29T09:25:20.841Z,27.00
2019-01-29T09:27:47.823Z,26.07
2019-01-29T09:30:16.840Z,27.83
2019-01-29T09:32:46.403Z,26.33
2019-01-29T09:35:15.183Z,28.37
2019-01-29T09:37:44.204Z,26.40
2019-01-29T09:40:14.927Z,31.43
2019-01-29T09:42:43.850Z,29.00
2019-01-29T09:45:14.031Z,32.10
2019-01-29T09:47:43.031Z,30.30
2019-01-29T09:50:13.012Z,28.60
2019-01-29T09:52:41.815Z,27.53
2019-01-29T09:55:14.119Z,32.50
2019-01-29T09:57:42.867Z,30.13
2019-01-29T10:00:14.253Z,27.63
2019-01-29T10:02:43.061Z,29.40
2019-01-29T10:05:11.972Z,34.00
2019-01-29T10:07:40.785Z,25.77
2019-01-29T10:10:09.960Z,30.07
2019-01-29T10:12:38.805Z,29.77
2019-01-29T10:15:08.903Z,31.60
2019-01-29T10:17:37.961Z,28.23
2019-01-29T10:20:09.453Z,33.83
2019-01-29T10:22:38.318Z,31.37
2019-01-29T10:25:08.433Z,33.50
2019-01-29T10:27:37.260Z,31.93
2019-01-29T10:30:06.552Z,34.27
2019-01-29T10:32:35.370Z,29.33
2019-01-29T10:35:05.107Z,31.80
2019-01-29T10:37:33.888Z,34.87
2019-01-29T10:40:02.848Z,33.73
2019-01-29T10:42:31.608Z,37.23
2019-01-29T10:45:00.548Z,39.53
2019-01-29T10:47:29.491Z,40.27
2019-01-29T10:49:58.428Z,38.93
2019-01-29T10:52:27.228Z,39.80
2019-01-29T10:54:58.040Z,36.97
2019-01-29T10:57:27.055Z,39.00
2019-01-29T10:59:55.971Z,41.90
2019-01-29T11:02:24.933Z,47.93
2019-01-29T11:04:53.695Z,39.33
2019-01-29T11:07:22.505Z,44.10
2019-01-29T11:09:51.362Z,42.33
2019-01-29T11:12:20.325Z,38.73
2019-01-29T11:14:49.562Z,36.87
2019-01-29T11:17:18.483Z,39.07
2019-01-29T11:19:47.431Z,40.40
2019-01-29T11:22:16.983Z,39.77
2019-01-29T11:24:45.781Z,37.47
2019-01-29T11:27:14.629Z,35.50
2019-01-29T11:29:43.623Z,37.47
2019-01-29T11:32:12.491Z,39.83
2019-01-29T11:34:41.383Z,43.73
2019-01-29T11:37:12.113Z,32.73
2019-01-29T11:39:40.893Z,38.70
2019-01-29T11:42:09.871Z,38.00
2019-01-29T11:44:38.708Z,35.37
2019-01-29T11:47:07.770Z,39.40
2019-01-29T11:49:36.555Z,38.37
2019-01-29T11:52:05.463Z,36.50
2019-01-29T11:54:34.246Z,39.03
2019-01-29T11:57:03.074Z,34.70
2019-01-29T11:59:32.541Z,37.47
2019-01-29T12:02:01.563Z,35.13
2019-01-29T12:04:30.598Z,34.33
2019-01-29T12:06:59.590Z,32.80
2019-01-29T12:09:29.021Z,32.83
2019-01-29T12:11:57.796Z,33.17
2019-01-29T12:14:26.741Z,35.23
2019-01-29T12:16:55.589Z,35.07
2019-01-29T12:19:24.524Z,33.73
2019-01-29T12:21:53.748Z,28.93
2019-01-29T12:24:22.747Z,28.10
2019-01-29T12:26:51.542Z,29.50
2019-01-29T12:29:20.500Z,29.17
2019-01-29T12:31:49.383Z,30.60
2019-01-29T12:34:18.213Z,25.13
2019-01-29T12:36:47.179Z,25.77
2019-01-29T12:39:16.195Z,22.67
2019-01-29T12:41:46.250Z,20.57
2019-01-29T12:44:15.052Z,24.00
2019-01-29T12:46:43.924Z,24.87
2019-01-29T12:49:12.763Z,22.53
2019-01-29T12:52:03.899Z,26.97
2019-01-29T12:54:32.797Z,23.60
2019-01-29T12:57:01.606Z,27.00
2019-01-29T12:59:30.592Z,23.80
2019-01-29T13:01:59.410Z,24.20
2019-01-29T13:04:28.401Z,24.00
2019-01-29T13:06:57.465Z,29.93
2019-01-29T13:09:26.779Z,25.43
2019-01-29T13:11:55.634Z,24.37
2019-01-29T13:14:24.565Z,23.87
2019-01-29T13:16:53.609Z,27.83
2019-01-29T13:19:22.809Z,26.77
2019-01-29T13:21:51.769Z,26.50
2019-01-29T13:24:20.693Z,26.27
2019-01-29T13:26:49.465Z,26.33
2019-01-29T13:29:18.510Z,22.70
2019-01-29T13:31:47.316Z,22.00
2019-01-29T13:34:16.126Z,23.03
2019-01-29T13:36:45.098Z,21.63
2019-01-29T13:39:14.076Z,21.47
2019-01-29T13:41:42.863Z,19.60
2019-01-29T13:44:11.786Z,16.90
2019-01-29T13:46:40.724Z,20.80
2019-01-29T13:49:10.099Z,15.57
2019-01-29T13:51:39.185Z,16.03
2019-01-29T13:54:08.374Z,14.97
2019-01-29T13:56:39.208Z,15.20
2019-01-29T13:59:08.163Z,14.93
2019-01-29T14:01:37.195Z,13.80
2019-01-29T14:04:06.622Z,14.00
2019-01-29T14:06:35.441Z,11.37
2019-01-29T14:09:06.684Z,10.83
2019-01-29T14:11:35.751Z,9.33
2019-01-29T14:14:04.999Z,12.00
2019-01-29T14:16:33.915Z,11.53
2019-01-29T14:19:03.038Z,13.37
2019-01-29T14:21:32.082Z,13.17
2019-01-29T14:24:00.967Z,10.33
2019-01-29T14:26:30.474Z,12.30
2019-01-29T14:28:59.390Z,8.13
2019-01-29T14:31:28.440Z,12.90
2019-01-29T14:33:57.278Z,14.70
2019-01-29T14:36:26.488Z,12.47
2019-01-29T14:39:20.980Z,14.27
2019-01-29T14:41:50.073Z,14.13
2019-01-29T14:44:20.397Z,14.05
2019-01-29T14:46:49.227Z,16.70
2019-01-29T14:49:18.202Z,13.33
2019-01-29T14:51:47.085Z,12.03
2019-01-29T14:54:34.366Z,16.40
2019-01-29T14:57:04.024Z,10.80
2019-01-29T14:59:32.878Z,12.00
2019-01-29T15:02:02.338Z,14.50
2019-01-29T15:04:31.352Z,16.80
2019-01-29T15:07:00.296Z,15.47
2019-01-29T15:09:29.453Z,13.37
2019-01-29T15:11:58.564Z,13.63
2019-01-29T15:14:27.760Z,13.47
2019-01-29T15:17:16.789Z,15.33
2019-01-29T15:19:45.770Z,13.27
2019-01-29T15:22:14.641Z,15.50
2019-01-29T15:24:43.528Z,16.97
2019-01-29T15:27:12.360Z,11.80
2019-01-29T15:29:41.930Z,13.07
2019-01-29T15:32:10.995Z,11.97
2019-01-29T15:34:40.468Z,12.10
2019-01-29T15:37:11.321Z,13.90
2019-01-29T15:39:40.177Z,9.73
2019-01-29T15:42:09.252Z,12.07
2019-01-29T15:44:38.326Z,10.83
2019-01-29T15:47:09.447Z,11.17
2019-01-29T15:49:38.412Z,10.83
2019-01-29T15:52:07.456Z,8.40
2019-01-29T15:54:36.371Z,10.30
2019-01-29T15:57:13.825Z,9.93
2019-01-29T15:59:42.837Z,13.27
2019-01-29T16:02:07.650Z,11.47
2019-01-29T16:04:36.474Z,9.33
2019-01-29T16:07:05.321Z,8.30
2019-01-29T16:09:34.230Z,9.27
2019-01-29T16:12:03.053Z,11.77
2019-01-29T16:14:31.926Z,12.63
2019-01-29T16:17:00.884Z,12.30
2019-01-29T16:19:29.962Z,9.30
2019-01-29T16:21:59.010Z,11.43
2019-01-29T16:24:27.890Z,12.97
2019-01-29T16:26:56.775Z,18.60
2019-01-29T16:29:26.000Z,11.77
2019-01-29T16:31:54.875Z,14.53
2019-01-29T16:34:23.715Z,13.83
2019-01-29T16:36:52.555Z,11.50
2019-01-29T16:39:21.457Z,15.37
2019-01-29T16:41:50.306Z,12.87
2019-01-29T16:44:19.084Z,14.77
2019-01-29T16:46:48.126Z,15.40
2019-01-29T16:49:17.083Z,15.27
2019-01-29T16:51:46.785Z,16.83
2019-01-29T16:54:15.787Z,17.07
2019-01-29T16:56:44.672Z,17.80
2019-01-29T16:59:13.509Z,13.20
2019-01-29T17:01:42.408Z,15.97
2019-01-29T17:04:11.310Z,15.17
2019-01-29T17:06:40.284Z,16.40
2019-01-29T17:09:10.458Z,15.80
2019-01-29T17:11:39.282Z,16.00
2019-01-29T17:14:08.374Z,14.33
2019-01-29T17:16:37.374Z,12.00
2019-01-29T17:19:06.948Z,14.33
2019-01-29T17:21:35.987Z,12.87
2019-01-29T17:24:04.818Z,14.80
2019-01-29T17:26:34.680Z,11.57
2019-01-29T17:29:03.607Z,12.17
2019-01-29T17:31:32.690Z,11.70
2019-01-29T17:34:02.150Z,13.43
2019-01-29T17:36:31.165Z,8.60
2019-01-29T17:39:00.181Z,10.97
2019-01-29T17:41:28.990Z,9.53
2019-01-29T17:43:58.057Z,13.23
2019-01-29T17:46:27.421Z,12.50
2019-01-29T17:48:56.248Z,15.57
2019-01-29T17:51:25.251Z,11.30
2019-01-29T17:53:55.071Z,10.97
2019-01-29T17:56:25.763Z,7.03
2019-01-29T17:58:54.708Z,8.23
2019-01-29T18:01:23.646Z,9.13
2019-01-29T18:03:52.651Z,8.63
2019-01-29T18:06:21.781Z,9.43
2019-01-29T18:08:50.878Z,9.47
2019-01-29T18:11:19.861Z,12.13
2019-01-29T18:13:48.826Z,11.37
2019-01-29T18:16:17.866Z,12.63
2019-01-29T18:18:46.914Z,8.87
2019-01-29T18:21:15.756Z,9.47
2019-01-29T18:23:44.933Z,8.97
2019-01-29T18:26:14.552Z,10.40
2019-01-29T18:28:44.408Z,9.90
2019-01-29T18:31:13.320Z,12.40
2019-01-29T18:33:42.459Z,10.93
2019-01-29T18:36:11.570Z,10.07
2019-01-29T18:38:40.647Z,12.40
2019-01-29T18:41:10.025Z,9.77
2019-01-29T18:43:39.039Z,12.40
2019-01-29T18:46:08.308Z,10.33
2019-01-29T18:48:38.823Z,9.23
2019-01-29T18:51:09.199Z,11.53
2019-01-29T18:53:39.093Z,13.13
2019-01-29T18:56:10.220Z,14.80
2019-01-29T18:58:39.536Z,12.40
2019-01-29T19:01:08.879Z,11.27
2019-01-29T19:03:37.902Z,9.87
2019-01-29T19:06:08.959Z,7.37
2019-01-29T19:08:38.344Z,13.20
2019-01-29T19:11:08.995Z,13.97
2019-01-29T19:13:40.610Z,9.77
2019-01-29T19:16:15.619Z,12.03
2019-01-29T19:18:44.710Z,10.20
2019-01-29T19:21:23.051Z,8.87
2019-01-29T19:23:53.972Z,10.17
2019-01-29T19:26:25.440Z,9.07
2019-01-29T19:28:56.763Z,15.63
2019-01-29T19:31:28.050Z,11.43
2019-01-29T19:33:57.781Z,10.60
2019-01-29T19:36:27.803Z,8.57
2019-01-29T19:38:58.075Z,11.67
2019-01-29T19:41:29.498Z,8.90
2019-01-29T19:44:00.316Z,8.87
2019-01-29T19:46:31.708Z,11.27
2019-01-29T19:49:01.381Z,9.33
2019-01-29T19:51:31.458Z,9.17
2019-01-29T19:54:02.668Z,13.87
2019-01-29T19:56:31.715Z,13.53
2019-01-29T19:59:00.722Z,11.67
2019-01-29T20:01:30.242Z,10.67
2019-01-29T20:04:01.083Z,10.60
2019-01-29T20:06:31.067Z,12.37
2019-01-29T20:09:00.705Z,14.57
2019-01-29T20:11:31.879Z,12.43
2019-01-29T20:14:03.983Z,11.83
2019-01-29T20:16:40.168Z,11.53
2019-01-29T20:19:13.122Z,12.03
2019-01-29T20:21:42.277Z,12.70
2019-01-29T20:24:11.657Z,12.07
2019-01-29T20:26:41.378Z,11.93
2019-01-29T20:29:14.453Z,11.10
2019-01-29T20:31:43.704Z,12.17
2019-01-29T20:34:13.455Z,13.37
2019-01-29T20:36:42.467Z,11.03
2019-01-29T20:39:11.635Z,14.87
2019-01-29T20:41:40.760Z,11.70
2019-01-29T20:44:10.480Z,10.97
2019-01-29T20:46:39.565Z,12.60
2019-01-29T20:49:08.747Z,9.83
2019-01-29T20:51:37.998Z,13.67
2019-01-29T20:54:06.856Z,12.80
2019-01-29T20:56:36.069Z,12.60
2019-01-29T20:59:04.989Z,12.30
2019-01-29T21:01:34.007Z,11.60
2019-01-29T21:04:02.961Z,9.23
2019-01-29T21:06:32.235Z,9.77
2019-01-29T21:09:01.198Z,10.87
2019-01-29T21:11:30.267Z,12.07
2019-01-29T21:13:59.358Z,10.00
2019-01-29T21:16:28.711Z,11.00
2019-01-29T21:18:57.613Z,11.17
2019-01-29T21:21:26.460Z,9.00
2019-01-29T21:23:55.853Z,11.77
2019-01-29T21:26:25.033Z,12.03
2019-01-29T21:29:02.712Z,9.97
2019-01-29T21:31:24.744Z,10.30
2019-01-29T21:33:53.647Z,9.33
2019-01-29T21:36:22.742Z,11.67
2019-01-29T21:38:51.728Z,8.80
2019-01-29T21:41:20.985Z,10.50
2019-01-29T21:43:50.051Z,9.60
2019-01-29T21:46:19.021Z,7.80
2019-01-29T21:48:48.666Z,8.73
2019-01-29T21:51:17.670Z,9.07
2019-01-29T21:53:46.685Z,7.63
2019-01-29T21:56:15.749Z,6.67
2019-01-29T21:58:44.801Z,8.93
2019-01-29T22:01:16.115Z,8.50
2019-01-29T22:03:45.305Z,10.13
2019-01-29T22:06:14.469Z,6.83
2019-01-29T22:08:43.396Z,7.63
2019-01-29T22:11:14.104Z,10.43
2019-01-29T22:13:42.964Z,6.67
2019-01-29T22:16:13.694Z,6.93
2019-01-29T22:18:42.758Z,9.30
2019-01-29T22:21:11.644Z,9.83
2019-01-29T22:23:40.744Z,10.13
2019-01-29T22:26:11.139Z,7.10
2019-01-29T22:28:42.256Z,7.63
2019-01-29T22:31:11.084Z,9.17
2019-01-29T22:33:39.930Z,6.97
2019-01-29T22:36:09.641Z,7.20
2019-01-29T22:38:38.550Z,8.23
2019-01-29T22:41:07.325Z,5.90
2019-01-29T22:43:36.317Z,6.90
2019-01-29T22:46:05.652Z,7.57
2019-01-29T22:48:34.852Z,6.40
2019-01-29T22:51:03.782Z,9.30
2019-01-29T22:53:32.700Z,7.63
2019-01-29T22:56:01.632Z,8.70
2019-01-29T22:58:30.882Z,6.47
2019-01-29T23:01:16.207Z,6.50
2019-01-29T23:03:46.042Z,7.37
2019-01-29T23:06:17.935Z,7.37
2019-01-29T23:08:46.897Z,6.78
2019-01-29T23:11:16.173Z,6.87
2019-01-29T23:13:44.946Z,7.53
2019-01-29T23:16:14.002Z,6.80
2019-01-29T23:18:43.068Z,7.73
2019-01-29T23:21:11.982Z,8.17
2019-01-29T23:23:40.839Z,7.63
2019-01-29T23:26:10.065Z,6.33
2019-01-29T23:28:38.934Z,8.23
2019-01-29T23:31:07.736Z,7.53
2019-01-29T23:33:36.635Z,10.70
2019-01-29T23:36:05.596Z,8.97
2019-01-29T23:38:34.372Z,9.00
2019-01-29T23:41:03.178Z,6.60
2019-01-29T23:43:32.292Z,9.67
2019-01-29T23:46:01.109Z,9.20
2019-01-29T23:48:29.995Z,8.90
2019-01-29T23:50:58.906Z,7.37
2019-01-29T23:53:27.986Z,8.87
2019-01-29T23:55:56.912Z,10.77
2019-01-29T23:58:26.054Z,10.03
